Time;durP1;ratioP1;P1;durP2;ratioP2;P2;SDS_P1;SDS_P2;PMS_P1;PMS_P2;Temp;Humidity;BMP_temperature;BMP_pressure;BME280_temperature;BME280_humidity;BME280_pressure;Samples;Min_cycle;Max_cycle;Signal;HPM_P1;HPM_P2
2022/06/10 00:00:46;;;;;;;7.20;1.50;;;;;;;10.63;53.25;101951.53;4972455;28;20077;-78
2022/06/10 00:03:13;;;;;;;11.05;2.17;;;;;;;10.56;53.02;101948.19;4962410;28;20043;-79
2022/06/10 00:05:41;;;;;;;2.90;1.50;;;;;;;10.54;52.85;101944.75;4973442;28;20041;-77
2022/06/10 00:08:10;;;;;;;2.30;1.65;;;;;;;10.54;52.74;101949.97;4973864;28;20034;-78
2022/06/10 00:10:36;;;;;;;3.20;1.15;;;;;;;10.37;53.05;101947.75;4990193;28;20053;-79
2022/06/10 00:13:02;;;;;;;4.53;1.77;;;;;;;10.27;53.01;101950.59;4971994;28;20849;-76
2022/06/10 00:15:29;;;;;;;5.82;1.55;;;;;;;10.28;53.19;101960.16;4977123;28;20043;-78
2022/06/10 00:17:55;;;;;;;7.30;1.88;;;;;;;10.34;52.87;101962.63;4987079;28;20175;-77
2022/06/10 00:20:23;;;;;;;5.82;1.65;;;;;;;10.36;52.87;101961.69;4971493;28;20037;-78
2022/06/10 00:22:48;;;;;;;4.43;1.40;;;;;;;10.36;52.63;101960.84;4961728;28;20054;-78
2022/06/10 00:25:17;;;;;;;4.78;1.23;;;;;;;10.31;52.75;101958.34;4972104;28;20046;-78
2022/06/10 00:27:43;;;;;;;6.20;1.92;;;;;;;10.26;52.55;101960.19;4957716;28;20064;-78
2022/06/10 00:30:10;;;;;;;6.30;1.30;;;;;;;10.29;52.60;101960.13;4970739;28;20540;-79
2022/06/10 00:32:36;;;;;;;3.55;1.38;;;;;;;10.18;52.39;101960.34;4955315;28;20138;-79
2022/06/10 00:35:01;;;;;;;3.35;1.38;;;;;;;10.14;52.71;101950.00;4960015;28;20098;-78
2022/06/10 00:37:27;;;;;;;7.20;1.77;;;;;;;10.00;52.60;101955.50;4955913;28;20050;-77
2022/06/10 00:39:53;;;;;;;3.70;1.63;;;;;;;9.95;52.91;101962.59;4959704;28;20160;-78
2022/06/10 00:42:18;;;;;;;4.60;2.35;;;;;;;9.92;52.73;101960.00;4971827;28;20043;-76
2022/06/10 00:44:48;;;;;;;7.68;1.70;;;;;;;9.87;53.46;101962.72;4961871;28;20034;-77
2022/06/10 00:47:30;;;;;;;6.05;1.67;;;;;;;9.91;52.97;101963.53;4972639;28;20054;-75
2022/06/10 00:50:00;;;;;;;8.57;1.40;;;;;;;9.97;52.91;101963.41;4955327;28;20046;-77
2022/06/10 00:52:31;;;;;;;4.32;2.15;;;;;;;9.85;52.85;101968.88;4973388;28;20229;-78
2022/06/10 00:54:58;;;;;;;3.53;1.55;;;;;;;9.77;53.06;101962.00;4958420;28;21855;-77
2022/06/10 00:57:29;;;;;;;2.55;1.25;;;;;;;9.76;53.36;101960.28;4977856;28;20049;-79
2022/06/10 01:00:12;;;;;;;5.45;1.02;;;;;;;9.75;53.43;101966.41;4968891;28;20030;-77
2022/06/10 01:02:39;;;;;;;9.23;1.40;;;;;;;9.76;53.14;101968.13;4954421;28;20933;-77
2022/06/10 01:05:12;;;;;;;4.90;1.67;;;;;;;9.70;52.84;101965.63;4972074;28;20053;-77
2022/06/10 01:07:42;;;;;;;3.22;1.60;;;;;;;9.71;52.97;101971.72;4956514;28;20058;-77
2022/06/10 01:10:11;;;;;;;6.63;1.33;;;;;;;9.73;53.08;101972.56;4985058;28;20030;-77
2022/06/10 01:12:37;;;;;;;1.52;1.10;;;;;;;9.72;52.93;101968.19;4955454;28;20046;-79
2022/06/10 01:15:15;;;;;;;2.28;1.38;;;;;;;9.68;53.09;101972.63;4985339;28;20671;-76
2022/06/10 01:18:02;;;;;;;5.70;1.85;;;;;;;9.60;53.09;101969.31;4956745;28;20058;-77
2022/06/10 01:20:51;;;;;;;6.97;1.60;;;;;;;9.65;52.87;101964.00;4978279;28;20043;-79
2022/06/10 01:23:16;;;;;;;6.30;1.35;;;;;;;9.62;52.99;101966.66;4957618;28;20038;-77
2022/06/10 01:26:07;;;;;;;4.43;1.88;;;;;;;9.68;53.16;101959.59;4976378;28;20060;-79
2022/06/10 01:29:03;;;;;;;3.78;1.55;;;;;;;9.67;52.84;101960.47;4984244;28;20130;-78
2022/06/10 01:31:49;;;;;;;5.50;1.67;;;;;;;9.60;52.55;101961.47;4988190;28;20039;-75
2022/06/10 01:34:29;;;;;;;4.03;0.85;;;;;;;9.54;53.20;101959.84;4957922;28;20138;-77
2022/06/10 01:37:07;;;;;;;4.20;1.48;;;;;;;9.53;52.81;101952.03;4955161;28;20092;-79
2022/06/10 01:40:02;;;;;;;2.53;0.70;;;;;;;9.50;52.94;101945.13;4979663;28;20026;-78
2022/06/10 01:42:36;;;;;;;5.35;1.30;;;;;;;9.54;52.71;101956.34;4967873;28;20384;-79
2022/06/10 01:45:17;;;;;;;4.47;1.73;;;;;;;9.61;52.61;101955.38;4976679;28;20038;-78
2022/06/10 01:47:51;;;;;;;3.95;0.60;;;;;;;9.56;52.54;101957.19;4977709;28;20076;-80
2022/06/10 01:50:46;;;;;;;5.22;1.42;;;;;;;9.55;52.40;101951.13;4957949;28;20210;-76
2022/06/10 01:53:24;;;;;;;3.28;1.20;;;;;;;9.48;52.38;101954.72;4950881;28;20086;-80
2022/06/10 01:56:01;;;;;;;5.82;1.58;;;;;;;9.50;52.68;101952.06;4985615;28;20045;-76
2022/06/10 01:58:34;;;;;;;1.63;1.05;;;;;;;9.46;52.36;101953.03;4964170;28;20045;-78
2022/06/10 02:01:23;;;;;;;7.10;1.80;;;;;;;9.44;52.49;101954.81;4983211;28;20254;-75
2022/06/10 02:04:10;;;;;;;5.28;2.03;;;;;;;9.44;52.51;101952.22;4985956;28;20051;-78
2022/06/10 02:06:45;;;;;;;4.20;1.30;;;;;;;9.43;52.37;101956.53;4975117;28;20149;-76
2022/06/10 02:09:17;;;;;;;5.70;1.35;;;;;;;9.42;52.17;101959.19;4961838;28;20050;-79
2022/06/10 02:11:46;;;;;;;;;;;;;;;9.40;52.41;101960.06;4986697;28;20049;-77
2022/06/10 02:14:19;;;;;;;7.00;1.40;;;;;;;9.37;52.39;101957.53;4956085;28;19922;-77
2022/06/10 02:16:49;;;;;;;7.95;1.60;;;;;;;9.37;52.47;101960.13;4969588;28;20035;-79
2022/06/10 02:19:26;;;;;;;3.38;0.80;;;;;;;9.24;52.32;101953.41;4961844;28;20639;-76
2022/06/10 02:21:56;;;;;;;4.13;1.48;;;;;;;9.28;52.33;101957.69;4954801;28;20038;-77
2022/06/10 02:24:34;;;;;;;6.38;1.48;;;;;;;9.26;52.65;101962.06;4970331;28;20106;-78
2022/06/10 02:27:20;;;;;;;2.22;1.02;;;;;;;9.24;52.36;101958.63;4983495;28;20106;-80
2022/06/10 02:29:59;;;;;;;5.38;1.08;;;;;;;9.17;52.55;101950.03;4972826;28;20545;-76
2022/06/10 02:32:25;;;;;;;7.60;1.92;;;;;;;9.07;52.43;101958.03;4967996;28;20088;-76
2022/06/10 02:34:51;;;;;;;9.80;1.65;;;;;;;9.18;52.43;101962.19;4953398;28;20129;-77
2022/06/10 02:37:26;;;;;;;4.75;1.50;;;;;;;9.17;52.22;101968.31;4959061;28;20050;-77
2022/06/10 02:39:58;;;;;;;4.47;1.38;;;;;;;9.13;52.47;101965.78;4954772;28;20130;-79
2022/06/10 02:42:33;;;;;;;1.65;1.15;;;;;;;9.19;52.50;101973.50;4968894;28;20047;-78
2022/06/10 02:45:37;;;;;;;3.70;1.27;;;;;;;9.23;52.08;101969.97;4954489;28;20042;-79
2022/06/10 02:48:42;;;;;;;3.22;1.58;;;;;;;9.25;51.96;101972.53;4972097;28;20162;-78
2022/06/10 02:51:07;;;;;;;4.25;0.85;;;;;;;9.19;52.30;101971.75;4926422;28;20042;-77
2022/06/10 02:53:33;;;;;;;4.38;1.02;;;;;;;9.13;52.09;101976.22;4962292;28;20066;-79
2022/06/10 02:55:59;;;;;;;2.08;0.88;;;;;;;9.09;52.32;101982.34;4990928;28;20588;-77
2022/06/10 03:01:57;;;;;;;7.10;1.20;;;;;;;9.01;52.32;101984.22;4992368;28;20481;-77
2022/06/10 03:05:01;;;;;;;7.28;2.30;;;;;;;9.05;52.59;101991.09;4963818;28;20046;-77
2022/06/10 03:07:39;;;;;;;7.68;1.30;;;;;;;9.06;52.23;101987.63;4992869;28;20070;-79
2022/06/10 03:10:30;;;;;;;5.10;1.02;;;;;;;9.02;52.38;101985.94;4971703;28;20041;-78
2022/06/10 03:13:02;;;;;;;8.48;1.50;;;;;;;9.07;52.61;101984.13;4974363;28;20059;-76
2022/06/10 03:15:30;;;;;;;;;;;;;;;9.07;52.41;101984.13;4958433;28;20052;-78
2022/06/10 03:18:10;;;;;;;4.40;1.38;;;;;;;9.03;52.38;101990.28;4989755;28;19972;-78
2022/06/10 03:20:43;;;;;;;5.68;1.45;;;;;;;9.05;52.41;101991.09;4993800;28;20307;-78
2022/06/10 03:23:16;;;;;;;6.28;1.45;;;;;;;8.95;52.72;101999.06;4980895;28;20101;-77
2022/06/10 03:25:54;;;;;;;6.53;1.23;;;;;;;9.10;52.07;101994.53;4981794;28;20540;-77
2022/06/10 03:28:52;;;;;;;4.55;1.33;;;;;;;9.21;52.16;101992.59;4971721;28;20057;-77
2022/06/10 03:31:23;;;;;;;8.35;1.70;;;;;;;9.13;52.19;101994.47;4983732;28;20045;-78
2022/06/10 03:34:02;;;;;;;6.35;1.55;;;;;;;9.21;52.56;101997.81;4981792;28;20074;-77
2022/06/10 03:36:31;;;;;;;3.10;1.20;;;;;;;9.24;51.95;102000.38;4966799;28;20062;-79
2022/06/10 03:38:57;;;;;;;7.18;1.75;;;;;;;9.23;52.17;101996.06;4964940;28;20050;-76
2022/06/10 03:41:32;;;;;;;3.63;1.67;;;;;;;9.23;52.04;102000.38;4982927;28;20062;-77
2022/06/10 03:44:02;;;;;;;3.75;1.02;;;;;;;9.29;52.37;101995.94;4959862;28;20057;-77
2022/06/10 03:46:31;;;;;;;6.53;1.85;;;;;;;9.30;52.21;101994.19;4968125;28;20068;-79
2022/06/10 03:49:01;;;;;;;1.80;1.02;;;;;;;9.33;51.85;101991.53;4964338;28;21037;-79
2022/06/10 03:51:27;;;;;;;5.43;1.17;;;;;;;9.33;51.90;101996.75;4975780;28;20089;-78
2022/06/10 03:53:53;;;;;;;6.53;1.38;;;;;;;9.40;52.63;102001.81;4975354;28;20490;-77
2022/06/10 03:56:23;;;;;;;1.90;1.10;;;;;;;9.47;52.02;101996.50;4963033;28;20035;-77
2022/06/10 03:58:49;;;;;;;5.07;1.05;;;;;;;9.53;51.80;101999.88;4963017;28;20050;-76
2022/06/10 04:01:15;;;;;;;5.93;1.02;;;;;;;9.61;51.83;102002.38;4966380;28;20023;-78
2022/06/10 04:03:40;;;;;;;7.97;1.10;;;;;;;9.61;51.84;101997.13;4978184;28;20045;-77
2022/06/10 04:06:06;;;;;;;7.28;1.25;;;;;;;9.65;51.45;102001.38;4989467;28;20058;-78
2022/06/10 04:08:32;;;;;;;5.28;0.80;;;;;;;9.70;51.47;101999.59;4967685;28;20563;-76
2022/06/10 04:10:58;;;;;;;6.97;1.45;;;;;;;9.76;51.52;102003.81;4969731;28;20045;-77
2022/06/10 04:13:24;;;;;;;4.30;1.23;;;;;;;9.78;51.78;102002.88;4977426;28;20057;-78
2022/06/10 04:15:50;;;;;;;9.07;1.50;;;;;;;9.80;51.49;102008.13;4993729;28;20034;-76
2022/06/10 04:18:15;;;;;;;3.95;1.65;;;;;;;9.96;50.98;102011.31;4977129;28;20051;-77
2022/06/10 04:20:41;;;;;;;9.32;2.28;;;;;;;9.98;51.15;101999.06;4992693;28;20042;-77
2022/06/10 04:23:08;;;;;;;10.82;2.17;;;;;;;10.19;50.96;102003.00;4975106;28;20154;-78
2022/06/10 04:25:36;;;;;;;6.38;1.30;;;;;;;10.25;50.86;102009.88;4964685;28;20222;-77
2022/06/10 04:28:03;;;;;;;8.98;1.17;;;;;;;10.54;50.47;102007.50;4957557;28;20120;-78
2022/06/10 04:30:43;;;;;;;2.75;1.00;;;;;;;10.68;50.43;102009.78;4964264;28;20045;-77
2022/06/10 04:33:09;;;;;;;6.85;0.95;;;;;;;10.83;49.98;102006.00;4973707;28;20114;-77
2022/06/10 04:35:36;;;;;;;1.67;1.05;;;;;;;10.87;49.30;102012.03;4992724;28;20130;-79
2022/06/10 04:38:03;;;;;;;5.90;1.30;;;;;;;10.89;49.34;102005.88;4957781;28;20057;-75
2022/06/10 04:40:30;;;;;;;3.88;0.90;;;;;;;11.08;49.33;102008.03;4993619;28;20047;-76
2022/06/10 04:42:58;;;;;;;5.85;1.30;;;;;;;11.16;48.71;102006.13;4976523;28;20046;-79
2022/06/10 04:45:31;;;;;;;5.05;0.82;;;;;;;11.29;48.75;102006.69;4960914;28;20031;-77
2022/06/10 04:47:58;;;;;;;6.43;1.00;;;;;;;11.28;48.44;102003.19;4972941;28;20607;-76
2022/06/10 04:50:25;;;;;;;12.10;1.40;;;;;;;11.43;48.78;102010.66;4979354;28;20038;-78
2022/06/10 04:52:51;;;;;;;2.92;1.05;;;;;;;11.60;48.45;102012.00;4975849;28;20105;-75
2022/06/10 04:55:18;;;;;;;2.42;0.80;;;;;;;11.68;47.99;102017.88;4959953;28;20134;-79
2022/06/10 04:57:44;;;;;;;7.47;1.40;;;;;;;11.82;47.72;102007.94;4973650;28;20135;-77
2022/06/10 05:00:16;;;;;;;6.82;1.15;;;;;;;11.77;48.01;102003.66;4959880;28;20145;-76
2022/06/10 05:02:42;;;;;;;3.78;1.35;;;;;;;12.37;48.06;102004.63;4974805;28;20042;-77
2022/06/10 05:05:08;;;;;;;10.25;1.27;;;;;;;13.63;45.30;102011.13;4974907;28;20588;-77
2022/06/10 05:07:34;;;;;;;7.43;1.35;;;;;;;16.16;40.15;102011.56;4989983;28;20042;-77
2022/06/10 05:09:59;;;;;;;5.65;0.70;;;;;;;17.90;34.86;102008.34;4985785;28;20031;-77
2022/06/10 05:12:28;;;;;;;10.82;1.50;;;;;;;19.56;32.22;102003.47;4953274;28;20054;-76
2022/06/10 05:14:54;;;;;;;5.13;1.10;;;;;;;20.10;30.07;102006.31;4974984;28;20035;-77
2022/06/10 05:17:19;;;;;;;7.65;0.85;;;;;;;21.11;29.19;102007.78;4989801;28;20112;-76
2022/06/10 05:19:47;;;;;;;5.03;1.23;;;;;;;21.76;27.18;102009.53;4971171;28;20034;-78
2022/06/10 05:22:14;;;;;;;5.40;0.90;;;;;;;22.45;27.82;102009.13;4961013;28;20050;-77
2022/06/10 05:24:42;;;;;;;4.40;1.02;;;;;;;21.66;28.55;102012.94;4973551;28;20030;-78
2022/06/10 05:27:08;;;;;;;7.28;0.63;;;;;;;22.85;27.07;102006.22;4971642;28;20700;-80
2022/06/10 05:29:35;;;;;;;7.13;0.77;;;;;;;22.28;28.19;102010.34;4974244;28;20030;-78
2022/06/10 05:32:00;;;;;;;7.15;0.65;;;;;;;21.66;28.78;102010.28;4969554;28;20769;-76
2022/06/10 05:34:44;;;;;;;7.22;1.13;;;;;;;22.26;27.10;102008.75;4957570;28;20039;-76
2022/06/10 05:37:12;;;;;;;4.47;0.47;;;;;;;23.15;27.61;101999.50;4972139;28;20073;-77
2022/06/10 05:39:38;;;;;;;11.55;0.95;;;;;;;24.02;25.51;102010.56;4956486;28;20538;-76
2022/06/10 05:42:06;;;;;;;4.68;0.73;;;;;;;24.82;26.17;102009.44;4972559;28;20026;-77
2022/06/10 05:44:43;;;;;;;6.88;1.02;;;;;;;25.33;23.54;102010.50;4959435;28;20031;-77
2022/06/10 05:47:13;;;;;;;9.00;0.75;;;;;;;25.24;25.01;102004.13;4970256;28;20517;-78
2022/06/10 05:49:41;;;;;;;18.75;3.92;;;;;;;25.63;23.75;102009.75;4971485;28;20046;-76
2022/06/10 05:52:10;;;;;;;6.15;0.73;;;;;;;26.02;23.52;102001.84;4986744;28;20057;-80
2022/06/10 05:54:40;;;;;;;4.77;0.57;;;;;;;26.27;22.93;102005.91;4971833;28;20615;-82
2022/06/10 05:57:07;;;;;;;9.75;1.70;;;;;;;26.61;22.63;101998.34;4978215;28;20774;-79
2022/06/10 05:59:36;;;;;;;6.15;0.55;;;;;;;26.84;22.28;102006.09;4961665;28;20034;-78
2022/06/10 06:02:03;;;;;;;3.95;0.57;;;;;;;27.65;21.62;102008.38;4955796;28;20030;-77
2022/06/10 06:04:29;;;;;;;6.60;1.15;;;;;;;24.38;24.95;102013.91;4969845;28;20109;-77
2022/06/10 06:06:55;;;;;;;5.05;0.70;;;;;;;24.34;24.79;102013.31;4981262;28;20489;-76
2022/06/10 06:09:21;;;;;;;3.72;0.77;;;;;;;26.20;22.49;102013.66;4959537;28;20177;-77
2022/06/10 06:11:48;;;;;;;5.05;0.70;;;;;;;27.18;21.81;102013.72;4967636;28;20046;-77
2022/06/10 06:14:17;;;;;;;6.57;0.90;;;;;;;27.34;21.14;102003.25;4973727;28;20030;-78
2022/06/10 06:16:47;;;;;;;8.50;0.73;;;;;;;26.90;21.54;102010.91;4964336;28;20046;-78
2022/06/10 06:19:12;;;;;;;4.75;0.85;;;;;;;27.70;20.75;102003.44;4970682;28;20042;-76
2022/06/10 06:21:38;;;;;;;9.27;0.55;;;;;;;27.10;21.86;102001.88;4968687;28;20031;-77
2022/06/10 06:24:03;;;;;;;8.57;1.15;;;;;;;26.74;22.30;102005.25;4957972;28;20066;-78
2022/06/10 06:26:29;;;;;;;5.43;1.38;;;;;;;26.93;22.16;102009.78;4960661;28;20061;-77
2022/06/10 06:28:54;;;;;;;6.78;1.05;;;;;;;27.23;21.60;102004.25;4953116;28;20085;-78
2022/06/10 06:31:22;;;;;;;3.65;1.58;;;;;;;28.29;21.05;102002.13;4970828;28;20077;-79
2022/06/10 06:33:47;;;;;;;2.55;0.85;;;;;;;27.82;20.75;102002.22;4970572;28;20058;-76
2022/06/10 06:36:20;;;;;;;6.57;1.15;;;;;;;28.50;20.04;102009.06;4972485;28;20045;-76
2022/06/10 06:38:46;;;;;;;5.75;0.45;;;;;;;28.77;20.89;102007.31;4985628;28;20054;-77
2022/06/10 06:41:11;;;;;;;4.68;0.88;;;;;;;28.41;19.94;102004.59;4972441;28;20026;-79
2022/06/10 06:43:37;;;;;;;8.38;0.90;;;;;;;28.69;21.07;102006.25;4959390;28;20050;-76
2022/06/10 06:46:03;;;;;;;5.60;0.47;;;;;;;28.10;20.10;102002.25;4971326;28;20099;-76
2022/06/10 06:48:29;;;;;;;6.55;0.80;;;;;;;25.83;22.84;102011.50;4959364;28;20042;-76
2022/06/10 06:50:55;;;;;;;8.80;0.90;;;;;;;25.56;23.56;102014.78;4985846;28;20038;-78
2022/06/10 06:53:21;;;;;;;9.57;0.77;;;;;;;26.48;22.04;102016.50;4958992;28;20676;-78
2022/06/10 06:55:46;;;;;;;11.43;0.95;;;;;;;25.59;24.14;102021.69;4962008;28;20042;-77
2022/06/10 06:58:16;;;;;;;4.10;0.50;;;;;;;28.06;20.93;102019.66;4990624;28;20050;-78
2022/06/10 07:00:42;;;;;;;13.57;1.38;;;;;;;26.06;22.12;102016.69;4972688;28;20042;-76
2022/06/10 07:03:08;;;;;;;6.82;0.98;;;;;;;28.59;20.42;102008.16;4972204;28;20069;-78
2022/06/10 07:05:35;;;;;;;5.82;0.95;;;;;;;29.48;19.28;102004.47;4924004;28;1106200;-78
2022/06/10 07:08:01;;;;;;;6.53;0.90;;;;;;;28.59;19.94;102008.16;4960201;28;20645;-76
2022/06/10 07:10:27;;;;;;;5.13;0.65;;;;;;;27.07;21.83;102004.81;4990132;28;20659;-76
2022/06/10 07:12:53;;;;;;;4.93;1.02;;;;;;;27.24;21.02;102005.09;4972754;28;20042;-76
2022/06/10 07:15:21;;;;;;;8.50;0.52;;;;;;;24.86;23.84;102010.84;4973992;28;20096;-77
2022/06/10 07:17:47;;;;;;;8.43;0.50;;;;;;;25.53;23.10;102014.19;4974448;28;20286;-76
2022/06/10 07:20:26;;;;;;;7.35;1.45;;;;;;;26.70;21.16;102013.59;4957970;28;20039;-76
2022/06/10 07:22:52;;;;;;;9.40;0.80;;;;;;;27.93;20.95;102015.47;4972221;28;20050;-79
2022/06/10 07:25:20;;;;;;;9.18;1.23;;;;;;;28.82;19.30;102013.94;4973551;28;20038;-76
2022/06/10 07:27:46;;;;;;;6.28;0.60;;;;;;;26.54;21.70;102013.28;4989498;28;20053;-77
2022/06/10 07:30:15;;;;;;;9.48;0.65;;;;;;;24.77;24.11;102023.19;4972447;28;20042;-77
2022/06/10 07:32:41;;;;;;;9.35;1.85;;;;;;;25.21;23.15;102021.28;4985443;28;20505;-77
2022/06/10 07:35:08;;;;;;;6.90;1.95;;;;;;;22.36;26.81;102012.44;4970570;28;20381;-76
2022/06/10 07:37:33;;;;;;;7.97;0.73;;;;;;;23.01;27.20;102021.88;4971092;28;20057;-76
2022/06/10 07:39:59;;;;;;;5.53;0.75;;;;;;;21.67;28.66;102020.84;4967877;28;20728;-77
2022/06/10 07:42:24;;;;;;;7.18;0.52;;;;;;;21.18;30.16;102024.16;4962553;28;20043;-78
2022/06/10 07:44:50;;;;;;;6.80;0.95;;;;;;;20.60;30.32;102020.00;4957321;28;20038;-77
2022/06/10 07:47:16;;;;;;;8.10;0.95;;;;;;;21.85;28.64;102020.50;4956895;28;20042;-79
2022/06/10 07:49:42;;;;;;;5.32;0.55;;;;;;;20.72;30.19;102021.84;4958486;28;20034;-76
2022/06/10 07:52:09;;;;;;;4.55;0.50;;;;;;;20.68;30.17;102025.66;4986891;28;20241;-76
2022/06/10 07:54:36;;;;;;;5.35;0.88;;;;;;;20.97;30.68;102020.25;4973807;28;20169;-77
2022/06/10 07:57:04;;;;;;;9.38;0.50;;;;;;;21.12;30.97;102025.41;4952912;28;20121;-77
2022/06/10 07:59:30;;;;;;;8.07;0.80;;;;;;;20.86;31.07;102021.81;4968453;28;20034;-78
2022/06/10 08:01:56;;;;;;;6.57;0.40;;;;;;;20.60;31.07;102015.53;4955174;28;20489;-76
2022/06/10 08:04:22;;;;;;;11.00;2.95;;;;;;;20.77;31.79;102026.88;4984932;28;20078;-76
2022/06/10 08:06:48;;;;;;;7.35;1.20;;;;;;;20.57;31.35;102025.50;4957819;28;20054;-78
2022/06/10 08:09:17;;;;;;;7.30;1.17;;;;;;;20.77;31.60;102018.88;4983856;28;20085;-77
2022/06/10 08:11:42;;;;;;;4.70;0.73;;;;;;;20.61;30.47;102017.22;4978872;28;20533;-79
2022/06/10 08:14:08;;;;;;;5.35;0.80;;;;;;;21.16;30.60;102020.75;4977750;28;20038;-77
2022/06/10 08:16:35;;;;;;;2.28;0.60;;;;;;;21.53;29.70;102011.16;4986771;28;20038;-79
2022/06/10 08:19:01;;;;;;;6.00;1.27;;;;;;;21.42;30.61;102012.78;4971234;28;20050;-78
2022/06/10 08:24:12;;;;;;;10.45;0.68;;;;;;;22.10;30.62;102023.16;4986360;28;20053;-78
2022/06/10 08:26:37;;;;;;;5.45;0.60;;;;;;;20.24;32.22;102026.69;4959875;28;20808;-78
2022/06/10 08:29:03;;;;;;;9.60;0.93;;;;;;;19.95;32.52;102032.00;4956558;28;20054;-78
2022/06/10 08:31:30;;;;;;;6.18;0.60;;;;;;;19.46;33.74;102034.97;4956492;28;20042;-77
2022/06/10 08:33:57;;;;;;;7.70;0.80;;;;;;;18.10;35.87;102030.25;4955489;28;20046;-77
2022/06/10 08:36:23;;;;;;;7.45;0.82;;;;;;;19.14;34.53;102036.84;4960534;28;20035;-77
2022/06/10 08:38:48;;;;;;;7.45;0.85;;;;;;;18.82;35.38;102036.88;4969139;28;20056;-78
2022/06/10 08:41:27;;;;;;;4.90;0.50;;;;;;;19.53;34.58;102038.09;4967329;28;20015;-79
2022/06/10 08:44:24;;;;;;;3.42;0.98;;;;;;;18.58;36.50;102031.16;4951398;28;20047;-76
2022/06/10 08:47:27;;;;;;;10.30;1.50;;;;;;;18.51;36.79;102043.03;4967822;28;20049;-76
2022/06/10 08:50:12;;;;;;;5.88;1.23;;;;;;;18.65;37.28;102035.16;4975776;28;20493;-76
2022/06/10 08:52:43;;;;;;;6.75;0.95;;;;;;;19.33;35.94;102034.81;4984121;28;20133;-76
2022/06/10 08:55:30;;;;;;;7.85;1.65;;;;;;;17.55;39.43;102039.28;4957024;28;20038;-77
2022/06/10 08:58:01;;;;;;;10.43;1.70;;;;;;;16.87;40.22;102039.97;4983829;28;20054;-77
2022/06/10 09:00:33;;;;;;;6.82;1.40;;;;;;;18.44;38.28;102035.44;4955477;28;20485;-77
2022/06/10 09:02:58;;;;;;;;;;;;;;;18.62;37.67;102032.69;4969763;28;20059;-77
2022/06/10 09:05:36;;;;;;;8.15;2.03;;;;;;;17.41;39.76;102048.72;4960527;28;19918;-76
2022/06/10 09:08:06;;;;;;;6.07;1.05;;;;;;;17.41;39.45;102048.72;4961155;28;20054;-77
2022/06/10 09:10:50;;;;;;;3.08;1.20;;;;;;;17.09;40.48;102047.72;4988945;28;20584;-79
2022/06/10 09:13:16;;;;;;;4.70;1.05;;;;;;;18.02;39.80;102041.22;4972941;28;20058;-75
2022/06/10 09:16:05;;;;;;;4.50;0.90;;;;;;;17.48;40.50;102037.88;4979811;28;20038;-75
2022/06/10 09:18:33;;;;;;;6.18;1.58;;;;;;;16.80;41.15;102047.34;4971009;28;20059;-76
2022/06/10 09:21:17;;;;;;;5.05;1.48;;;;;;;17.91;39.54;102044.44;4988135;28;20105;-76
2022/06/10 09:23:46;;;;;;;6.90;1.13;;;;;;;17.65;40.16;102038.72;4951460;28;20042;-75
2022/06/10 09:26:49;;;;;;;11.27;1.52;;;;;;;19.76;36.69;102028.78;4987981;28;20395;-76
2022/06/10 09:29:16;;;;;;;4.18;0.90;;;;;;;21.19;33.64;102025.84;4972267;28;20075;-78
2022/06/10 09:31:58;;;;;;;5.68;0.73;;;;;;;20.57;35.25;102031.66;4970912;28;20550;-76
2022/06/10 09:34:50;;;;;;;10.18;1.90;;;;;;;20.25;35.88;102039.88;4990294;28;20034;-77
2022/06/10 09:37:49;;;;;;;11.25;1.92;;;;;;;20.07;35.34;102035.69;4979891;28;20042;-77
2022/06/10 09:41:00;;;;;;;4.65;0.88;;;;;;;21.05;34.20;102026.78;4971824;28;20039;-77
2022/06/10 09:43:33;;;;;;;2.55;0.50;;;;;;;23.36;31.29;102026.38;4942711;28;20065;-76
2022/06/10 09:46:12;;;;;;;4.35;0.82;;;;;;;25.01;29.36;102030.16;4987890;28;20053;-77
2022/06/10 09:48:57;;;;;;;5.35;0.82;;;;;;;21.19;34.11;102047.13;4972107;28;20054;-77
2022/06/10 09:51:26;;;;;;;3.25;1.00;;;;;;;19.94;36.07;102037.41;4991924;28;20065;-77
2022/06/10 09:53:59;;;;;;;4.05;0.88;;;;;;;19.85;37.20;102046.78;4973196;28;20501;-76
2022/06/10 09:57:02;;;;;;;2.05;0.65;;;;;;;19.40;38.09;102045.91;4972925;28;20053;-78
2022/06/10 09:59:37;;;;;;;3.45;1.30;;;;;;;18.85;38.74;102039.34;4976646;28;20069;-77
2022/06/10 10:02:35;;;;;;;2.95;1.52;;;;;;;18.60;39.65;102040.72;4976014;28;20162;-77
2022/06/10 10:05:22;;;;;;;3.58;1.08;;;;;;;18.91;38.77;102044.31;4989931;28;20674;-78
2022/06/10 10:07:52;;;;;;;3.70;1.27;;;;;;;18.98;39.56;102044.81;4981438;28;20054;-77
2022/06/10 10:10:25;;;;;;;4.38;1.35;;;;;;;18.16;41.15;102043.13;4976663;28;20182;-76
2022/06/10 10:13:06;;;;;;;5.65;1.55;;;;;;;19.20;39.82;102044.44;4971251;28;20054;-76
2022/06/10 10:15:34;;;;;;;7.63;1.10;;;;;;;20.31;37.63;102046.63;4975785;28;20046;-77
2022/06/10 10:18:25;;;;;;;4.90;1.17;;;;;;;19.96;37.53;102041.66;4975501;28;20085;-78
2022/06/10 10:21:03;;;;;;;2.55;0.95;;;;;;;19.07;39.71;102039.00;4971621;28;20045;-78
2022/06/10 10:23:31;;;;;;;9.40;1.17;;;;;;;20.19;38.06;102045.53;5001530;28;20717;-78
2022/06/10 10:25:58;;;;;;;4.35;1.30;;;;;;;18.80;39.08;102044.06;4958982;28;21109;-79
2022/06/10 10:28:28;;;;;;;2.72;1.13;;;;;;;18.16;41.65;102051.06;4990994;28;20477;-77
2022/06/10 10:31:09;;;;;;;7.35;2.65;;;;;;;17.72;42.57;102049.00;4975477;28;20536;-78
2022/06/10 10:33:35;;;;;;;3.13;1.47;;;;;;;17.76;43.54;102059.34;4981064;28;20134;-77
2022/06/10 10:36:05;;;;;;;3.00;1.67;;;;;;;17.81;42.69;102048.50;4975058;28;20129;-77
2022/06/10 10:38:35;;;;;;;5.05;2.60;;;;;;;18.23;43.00;102048.06;4965870;28;20915;-76
2022/06/10 10:41:17;;;;;;;9.32;3.47;;;;;;;18.84;40.54;102048.25;4962602;28;20200;-77
2022/06/10 10:43:45;;;;;;;4.80;2.80;;;;;;;17.75;43.11;102047.03;4987027;28;20042;-76
2022/06/10 10:46:36;;;;;;;7.35;2.95;;;;;;;18.46;42.02;102065.31;4970961;28;20034;-76
2022/06/10 10:49:24;;;;;;;6.05;3.15;;;;;;;18.01;42.48;102056.25;4987981;28;20531;-77
2022/06/10 10:51:50;;;;;;;3.90;2.75;;;;;;;17.80;42.89;102054.72;4952331;28;20046;-78
2022/06/10 10:54:33;;;;;;;5.88;3.10;;;;;;;18.29;42.73;102053.94;4975308;28;20058;-80
2022/06/10 10:57:00;;;;;;;8.90;3.33;;;;;;;17.84;43.70;102049.19;4988675;28;20041;-77
2022/06/10 10:59:38;;;;;;;9.32;4.07;;;;;;;17.16;44.75;102062.31;4989788;28;20125;-75
2022/06/10 11:02:26;;;;;;;6.30;3.05;;;;;;;17.49;44.13;102058.94;4979932;28;21878;-77
2022/06/10 11:04:51;;;;;;;9.82;3.67;;;;;;;16.59;46.23;102061.50;4974246;28;20053;-78
2022/06/10 11:07:21;;;;;;;4.28;2.88;;;;;;;17.36;45.47;102060.47;4974825;28;20034;-76
2022/06/10 11:09:50;;;;;;;7.43;3.67;;;;;;;17.63;44.40;102067.03;4979980;28;20031;-77
2022/06/10 11:12:26;;;;;;;7.72;3.83;;;;;;;17.27;44.55;102066.19;4980072;28;20049;-74
2022/06/10 11:15:13;;;;;;;5.78;3.78;;;;;;;18.08;43.63;102058.56;4985194;28;20030;-75
2022/06/10 11:17:43;;;;;;;6.18;4.47;;;;;;;18.88;41.79;102055.09;4952700;28;20061;-77
2022/06/10 11:20:33;;;;;;;6.22;3.35;;;;;;;18.31;42.01;102065.31;4972551;28;20501;-78
2022/06/10 11:23:25;;;;;;;14.95;3.40;;;;;;;17.41;43.98;102063.75;4968890;28;20077;-77
2022/06/10 11:26:10;;;;;;;9.35;3.80;;;;;;;17.29;44.23;102064.34;4960051;28;20127;-77
2022/06/10 11:28:39;;;;;;;10.07;5.38;;;;;;;16.40;46.26;102069.44;4976538;28;20062;-78
2022/06/10 11:31:40;;;;;;;12.07;4.25;;;;;;;17.84;44.01;102058.91;4969727;28;20046;-78
2022/06/10 11:34:16;;;;;;;6.05;3.78;;;;;;;17.54;43.35;102066.66;4974257;28;20054;-76
2022/06/10 11:36:49;;;;;;;12.63;5.25;;;;;;;16.95;45.52;102063.34;4989671;28;20050;-76
2022/06/10 11:39:27;;;;;;;11.80;4.38;;;;;;;18.15;43.40;102059.94;4962540;28;21402;-76
2022/06/10 11:42:09;;;;;;;11.35;4.10;;;;;;;18.66;42.21;102050.13;4956600;28;20034;-76
2022/06/10 11:44:46;;;;;;;8.18;3.65;;;;;;;19.10;41.32;102054.72;4974471;28;20031;-78
2022/06/10 11:47:24;;;;;;;11.25;3.47;;;;;;;19.43;40.00;102053.69;4968841;28;20073;-77
2022/06/10 11:50:12;;;;;;;8.70;3.85;;;;;;;18.46;41.54;102060.03;4972949;28;20096;-78
2022/06/10 11:52:49;;;;;;;7.93;3.75;;;;;;;18.69;41.48;102049.94;4957204;28;20070;-77
2022/06/10 11:55:19;;;;;;;9.38;4.35;;;;;;;18.16;42.05;102066.94;4976825;28;20066;-78
2022/06/10 12:01:03;;;;;;;8.85;4.50;;;;;;;17.59;43.96;102059.34;4988158;28;20663;-77